Time;durP1;ratioP1;P1;durP2;ratioP2;P2;SDS_P1;SDS_P2;PMS_P1;PMS_P2;Temp;Humidity;BMP_temperature;BMP_pressure;BME280_temperature;BME280_humidity;BME280_pressure;Samples;Min_cycle;Max_cycle;Signal;HPM_P1;HPM_P2
2023/12/04 00:00:22;;;;;;;23.05;13.40;;;;;;;1.61;71.58;101880.56;7392743;19;20035;-67
2023/12/04 00:02:49;;;;;;;23.50;13.30;;;;;;;1.57;71.45;101881.53;7394308;19;20515;-67
2023/12/04 00:05:17;;;;;;;22.60;12.98;;;;;;;1.63;71.35;101868.34;7394471;19;20035;-67
2023/12/04 00:07:45;;;;;;;20.65;12.55;;;;;;;1.60;71.37;101861.44;7394173;19;20039;-67
2023/12/04 00:10:13;;;;;;;23.55;13.40;;;;;;;1.48;71.16;101859.03;7390921;19;20022;-67
2023/12/04 00:12:41;;;;;;;24.17;13.32;;;;;;;1.49;71.61;101850.34;7393847;19;20360;-69
2023/12/04 00:15:09;;;;;;;23.58;13.35;;;;;;;1.58;71.16;101855.38;7392282;19;20026;-66
2023/12/04 00:17:39;;;;;;;23.40;13.50;;;;;;;1.69;70.96;101853.44;7394409;19;20022;-66
2023/12/04 00:20:09;;;;;;;23.55;13.23;;;;;;;1.70;70.99;101852.53;7392647;19;20041;-66
2023/12/04 00:22:38;;;;;;;23.88;13.57;;;;;;;1.69;70.58;101844.75;7393639;19;20089;-67
2023/12/04 00:25:06;;;;;;;20.42;12.25;;;;;;;1.64;71.26;101841.34;7393648;19;20018;-66
2023/12/04 00:27:34;;;;;;;23.95;13.68;;;;;;;1.50;71.88;101835.53;7393781;19;20026;-66
2023/12/04 00:30:04;;;;;;;22.55;12.88;;;;;;;1.59;71.83;101830.13;7392438;19;20018;-66
2023/12/04 00:32:31;;;;;;;23.02;13.80;;;;;;;1.62;71.31;101824.84;7393047;19;20409;-67
2023/12/04 00:34:59;;;;;;;23.65;13.07;;;;;;;1.44;71.81;101816.47;7393472;19;20032;-67
2023/12/04 00:37:28;;;;;;;25.10;13.75;;;;;;;1.50;71.79;101820.75;7393193;19;20028;-66
2023/12/04 00:39:55;;;;;;;22.13;13.02;;;;;;;1.55;71.51;101815.41;7392505;19;20018;-66
2023/12/04 00:42:23;;;;;;;24.33;13.63;;;;;;;1.53;71.25;101809.38;7393989;19;20010;-66
2023/12/04 00:44:51;;;;;;;23.65;13.88;;;;;;;1.59;71.11;101806.63;7393815;19;20078;-66
2023/12/04 00:47:19;;;;;;;22.45;13.23;;;;;;;1.54;71.37;101809.34;7392744;19;20709;-66
2023/12/04 00:49:47;;;;;;;22.98;13.68;;;;;;;1.57;70.94;101806.69;7391075;19;20475;-66
2023/12/04 00:52:15;;;;;;;22.73;13.38;;;;;;;1.55;71.27;101803.22;7394204;19;20018;-67
2023/12/04 00:54:42;;;;;;;22.23;13.30;;;;;;;1.29;71.37;101798.50;7395664;19;20027;-66
2023/12/04 00:57:10;;;;;;;23.38;13.63;;;;;;;1.39;71.81;101792.22;7393887;19;20026;-66
2023/12/04 00:59:38;;;;;;;24.60;13.98;;;;;;;1.49;71.33;101790.31;7391985;19;20031;-66
2023/12/04 01:02:07;;;;;;;23.67;13.50;;;;;;;1.55;71.46;101790.16;7393017;19;20010;-66
2023/12/04 01:04:34;;;;;;;23.45;13.73;;;;;;;1.59;70.93;101797.06;7392497;19;20022;-66
2023/12/04 01:07:02;;;;;;;23.02;13.38;;;;;;;1.56;71.03;101783.19;7391454;19;20010;-66
2023/12/04 01:09:30;;;;;;;24.85;13.95;;;;;;;1.76;70.49;101772.38;7390538;19;20051;-66
2023/12/04 01:11:58;;;;;;;23.10;14.02;;;;;;;1.67;70.62;101776.00;7390366;19;20090;-66
2023/12/04 01:14:26;;;;;;;23.88;13.70;;;;;;;1.76;70.88;101782.81;7392097;19;20015;-66
2023/12/04 01:16:54;;;;;;;23.15;13.60;;;;;;;1.58;71.20;101774.47;7392410;19;20033;-67
2023/12/04 01:19:22;;;;;;;24.15;13.88;;;;;;;1.65;71.45;101767.38;7392059;19;20030;-67
2023/12/04 01:21:49;;;;;;;26.65;14.80;;;;;;;1.69;70.84;101761.19;7391741;19;20022;-65
2023/12/04 01:24:17;;;;;;;24.65;13.50;;;;;;;1.66;70.75;101762.09;7391981;19;20039;-65
2023/12/04 01:26:45;;;;;;;24.25;14.73;;;;;;;1.81;70.63;101766.16;7392028;19;20030;-65
2023/12/04 01:29:13;;;;;;;23.05;13.25;;;;;;;1.77;70.55;101758.44;7391723;19;20023;-65
2023/12/04 01:31:40;;;;;;;23.80;13.27;;;;;;;1.71;70.78;101752.41;7389397;19;20021;-65
2023/12/04 01:34:08;;;;;;;23.85;13.60;;;;;;;1.64;71.31;101753.47;7391747;19;20024;-66
2023/12/04 01:36:40;;;;;;;22.73;13.13;;;;;;;1.68;71.04;101749.91;7391927;19;20025;-67
2023/12/04 01:39:08;;;;;;;24.30;13.25;;;;;;;1.67;71.62;101756.00;7391552;19;20018;-67
2023/12/04 01:41:36;;;;;;;23.05;13.20;;;;;;;1.69;71.53;101751.59;7389530;19;20019;-67
2023/12/04 01:44:04;;;;;;;22.48;13.05;;;;;;;1.77;71.32;101745.38;7391498;19;20014;-67
2023/12/04 01:46:31;;;;;;;21.90;13.07;;;;;;;1.82;70.98;101740.91;7391623;19;20019;-69
2023/12/04 01:49:02;;;;;;;24.05;12.95;;;;;;;1.78;71.08;101741.84;7391417;19;20018;-69
2023/12/04 01:51:31;;;;;;;22.27;12.77;;;;;;;1.70;71.37;101736.78;7388864;19;20026;-69
2023/12/04 01:54:03;;;;;;;24.65;13.48;;;;;;;1.83;71.35;101733.06;7391598;19;20351;-69
2023/12/04 01:56:31;;;;;;;23.52;13.45;;;;;;;1.80;71.29;101737.47;7391370;19;20093;-69
2023/12/04 01:58:59;;;;;;;24.70;13.45;;;;;;;1.75;71.52;101734.09;7389897;19;20022;-68
2023/12/04 02:01:28;;;;;;;23.33;12.63;;;;;;;1.78;71.35;101728.81;7388950;19;20019;-68
2023/12/04 02:03:57;;;;;;;22.13;12.95;;;;;;;1.70;71.01;101732.44;7391223;19;20094;-68
2023/12/04 02:06:25;;;;;;;23.80;12.95;;;;;;;1.64;71.25;101726.47;7388898;19;20530;-69
2023/12/04 02:08:53;;;;;;;23.98;13.02;;;;;;;1.53;72.43;101725.88;7389525;19;20018;-67
2023/12/04 02:11:21;;;;;;;22.50;12.50;;;;;;;1.67;71.79;101719.44;7388218;19;20023;-66
2023/12/04 02:13:49;;;;;;;24.48;13.35;;;;;;;1.74;71.78;101720.19;7390350;19;20043;-66
2023/12/04 02:16:19;;;;;;;21.95;12.48;;;;;;;1.65;71.90;101718.63;7390389;19;20011;-66
2023/12/04 02:18:47;;;;;;;22.00;12.02;;;;;;;1.62;72.15;101718.69;7390869;19;20026;-66
2023/12/04 02:21:15;;;;;;;20.88;12.27;;;;;;;1.74;71.91;101717.56;7395109;19;20014;-69
2023/12/04 02:23:42;;;;;;;22.52;13.23;;;;;;;1.76;71.81;101704.50;7397856;19;20381;-66
2023/12/04 02:26:15;;;;;;;21.15;12.05;;;;;;;1.78;71.97;101702.69;7397381;19;20014;-65
2023/12/04 02:28:50;;;;;;;22.10;12.38;;;;;;;1.60;72.90;101704.81;7397994;19;20021;-66
2023/12/04 02:31:20;;;;;;;24.52;12.57;;;;;;;1.80;72.21;101695.69;7394758;19;20022;-69
2023/12/04 02:33:52;;;;;;;19.08;11.23;;;;;;;1.68;72.45;101681.16;7397650;19;20015;-69
2023/12/04 02:36:20;;;;;;;23.75;12.73;;;;;;;1.65;72.79;101679.47;7397012;19;20134;-69
2023/12/04 02:38:48;;;;;;;20.45;11.55;;;;;;;1.82;72.19;101675.63;7395692;19;20039;-69
2023/12/04 02:41:17;;;;;;;22.20;11.77;;;;;;;1.83;72.13;101677.31;7395326;19;20022;-69
2023/12/04 02:43:45;;;;;;;19.27;11.65;;;;;;;1.77;72.71;101680.09;7397480;19;20006;-69
2023/12/04 02:46:13;;;;;;;19.73;11.98;;;;;;;1.85;72.71;101667.72;7397319;19;20086;-69
2023/12/04 02:48:41;;;;;;;21.17;11.82;;;;;;;1.94;72.34;101668.34;7396822;19;20504;-69
2023/12/04 02:51:10;;;;;;;19.58;11.82;;;;;;;1.87;72.62;101665.91;7393862;19;20015;-69
2023/12/04 02:53:38;;;;;;;22.50;12.57;;;;;;;1.76;73.17;101665.34;7396795;19;20015;-69
2023/12/04 02:56:06;;;;;;;20.65;12.02;;;;;;;1.84;73.11;101652.94;7395336;19;20385;-69
2023/12/04 02:58:34;;;;;;;21.15;11.57;;;;;;;1.85;73.09;101650.28;7396963;19;20010;-70
2023/12/04 03:01:02;;;;;;;22.40;12.07;;;;;;;1.86;73.18;101654.63;7394372;19;20052;-68
2023/12/04 03:03:30;;;;;;;20.58;11.93;;;;;;;1.83;73.28;101659.03;7396409;19;20094;-68
2023/12/04 03:05:58;;;;;;;21.63;12.05;;;;;;;1.86;73.19;101653.75;7396208;19;20019;-68
2023/12/04 03:08:26;;;;;;;21.23;11.23;;;;;;;1.66;74.17;101644.63;7396474;19;20029;-69
2023/12/04 03:10:53;;;;;;;20.48;12.00;;;;;;;1.80;73.62;101644.34;7393618;19;20490;-69
2023/12/04 03:13:21;;;;;;;21.30;11.70;;;;;;;1.69;74.17;101635.88;7396375;19;20015;-69
2023/12/04 03:15:49;;;;;;;20.48;11.27;;;;;;;1.73;74.09;101629.69;7395807;19;20044;-69
2023/12/04 03:18:17;;;;;;;18.98;11.18;;;;;;;1.65;74.75;101639.47;7395791;19;20022;-69
2023/12/04 03:20:45;;;;;;;21.23;12.00;;;;;;;1.77;74.75;101633.94;7393754;19;20382;-69
2023/12/04 03:23:12;;;;;;;18.85;10.63;;;;;;;1.72;75.04;101630.59;7396590;19;20471;-69
2023/12/04 03:25:40;;;;;;;19.42;10.60;;;;;;;1.74;75.43;101626.19;7393902;19;20382;-69
2023/12/04 03:28:08;;;;;;;21.13;11.25;;;;;;;1.68;75.62;101624.59;7395459;19;20067;-69
2023/12/04 03:30:36;;;;;;;19.35;11.23;;;;;;;1.74;75.51;101620.09;7391772;19;20133;-69
2023/12/04 03:33:04;;;;;;;20.05;11.15;;;;;;;1.56;75.95;101617.00;7393805;19;20098;-69
2023/12/04 03:35:31;;;;;;;18.80;11.00;;;;;;;1.70;76.69;101616.72;7396251;19;20022;-68
2023/12/04 03:37:59;;;;;;;19.23;11.10;;;;;;;1.75;75.87;101613.97;7395430;19;20019;-68
2023/12/04 03:40:28;;;;;;;19.92;11.02;;;;;;;1.84;75.81;101608.56;7393603;19;20014;-67
2023/12/04 03:42:55;;;;;;;19.52;10.82;;;;;;;1.76;75.94;101605.28;7395490;19;20438;-67
2023/12/04 03:45:23;;;;;;;19.02;10.73;;;;;;;1.79;76.36;101603.41;7395029;19;20014;-68
2023/12/04 03:47:51;;;;;;;19.55;10.52;;;;;;;1.64;76.53;101604.66;7393206;19;20011;-68
2023/12/04 03:50:19;;;;;;;20.73;11.02;;;;;;;1.64;76.78;101607.28;7393496;19;20026;-68
2023/12/04 03:52:47;;;;;;;19.88;10.70;;;;;;;1.66;76.61;101595.03;7392656;19;20534;-67
2023/12/04 03:55:15;;;;;;;20.17;10.82;;;;;;;1.62;76.69;101595.16;7393180;19;20623;-65
2023/12/04 03:57:45;;;;;;;18.38;10.68;;;;;;;1.57;76.83;101592.66;7394933;19;20361;-65
2023/12/04 04:00:13;;;;;;;19.05;10.13;;;;;;;1.60;76.93;101595.19;7393217;19;20015;-66
2023/12/04 04:02:43;;;;;;;18.67;9.98;;;;;;;1.70;77.37;101583.63;7394500;19;20063;-65
2023/12/04 04:05:11;;;;;;;20.02;11.07;;;;;;;1.73;76.92;101587.06;7394669;19;20035;-64
2023/12/04 04:07:39;;;;;;;19.35;10.48;;;;;;;1.72;77.00;101586.22;7394990;19;20014;-65
2023/12/04 04:10:08;;;;;;;18.63;10.80;;;;;;;1.83;76.83;101578.09;7393019;19;20564;-65
2023/12/04 04:12:36;;;;;;;19.27;10.32;;;;;;;1.75;77.14;101582.66;7392738;19;20019;-66
2023/12/04 04:15:04;;;;;;;19.13;10.60;;;;;;;1.81;77.21;101585.97;7392597;19;20018;-65
2023/12/04 04:17:33;;;;;;;18.25;10.38;;;;;;;1.75;77.25;101574.81;7394106;19;20491;-65
2023/12/04 04:20:01;;;;;;;18.45;9.95;;;;;;;1.80;77.27;101572.97;7391367;19;20018;-65
2023/12/04 04:22:29;;;;;;;17.13;9.60;;;;;;;1.67;77.47;101564.56;7393872;19;20047;-66
2023/12/04 04:24:57;;;;;;;18.40;10.27;;;;;;;1.67;77.86;101556.72;7392308;19;20014;-66
2023/12/04 04:27:25;;;;;;;18.75;10.55;;;;;;;1.80;77.65;101559.91;7393696;19;20044;-67
2023/12/04 04:29:54;;;;;;;19.67;10.32;;;;;;;1.92;78.00;101562.22;7392720;19;20568;-66
2023/12/04 04:32:21;;;;;;;18.98;10.43;;;;;;;1.70;77.70;101560.13;7390778;19;20025;-66
2023/12/04 04:34:49;;;;;;;19.55;10.63;;;;;;;1.66;78.70;101557.63;7393644;19;20027;-66
2023/12/04 04:37:17;;;;;;;17.63;10.15;;;;;;;1.72;78.35;101549.66;7393288;19;20389;-66
2023/12/04 04:39:45;;;;;;;17.88;9.90;;;;;;;1.77;78.12;101546.94;7390679;19;20030;-66
2023/12/04 04:42:14;;;;;;;18.52;9.73;;;;;;;1.86;77.88;101544.94;7391552;19;20022;-66
2023/12/04 04:44:42;;;;;;;17.35;9.48;;;;;;;1.81;77.89;101546.81;7392558;19;20025;-66
2023/12/04 04:47:09;;;;;;;17.13;9.00;;;;;;;1.83;77.95;101546.75;7392818;19;20015;-66
2023/12/04 04:49:37;;;;;;;17.63;9.35;;;;;;;1.74;78.18;101544.41;7390326;19;20014;-66
2023/12/04 04:52:05;;;;;;;17.75;9.55;;;;;;;1.64;78.44;101547.25;7391614;19;20019;-66
2023/12/04 04:54:33;;;;;;;17.30;9.52;;;;;;;1.76;78.26;101535.63;7391357;19;20392;-66
2023/12/04 04:57:01;;;;;;;16.13;8.98;;;;;;;1.70;78.72;101530.56;7393139;19;20041;-66
2023/12/04 04:59:30;;;;;;;15.70;9.30;;;;;;;1.73;78.19;101529.63;7392226;19;20424;-66
2023/12/04 05:01:58;;;;;;;18.50;9.45;;;;;;;1.75;77.92;101518.22;7392238;19;20022;-66
2023/12/04 05:04:26;;;;;;;18.63;8.98;;;;;;;1.78;77.80;101525.16;7392440;19;20340;-66
2023/12/04 05:06:54;;;;;;;16.27;9.00;;;;;;;1.80;78.01;101525.97;7393130;19;20352;-66
2023/12/04 05:09:22;;;;;;;16.25;9.00;;;;;;;1.77;78.11;101524.28;7390898;19;20022;-65
2023/12/04 05:11:49;;;;;;;17.02;9.00;;;;;;;1.82;77.99;101517.19;7391555;19;20348;-65
2023/12/04 05:14:20;;;;;;;15.23;8.35;;;;;;;1.86;77.75;101516.22;7390579;19;20027;-65
2023/12/04 05:16:48;;;;;;;17.35;9.38;;;;;;;1.94;77.91;101503.81;7391339;19;20046;-65
2023/12/04 05:19:15;;;;;;;16.00;8.52;;;;;;;1.87;77.48;101501.41;7392707;19;20018;-64
2023/12/04 05:21:44;;;;;;;19.15;9.27;;;;;;;1.88;77.62;101505.75;7388747;19;20026;-66
2023/12/04 05:24:11;;;;;;;16.08;8.73;;;;;;;1.76;77.68;101500.84;7391247;19;20381;-66
2023/12/04 05:26:39;;;;;;;15.93;8.75;;;;;;;1.65;78.08;101503.72;7392807;19;20010;-66
2023/12/04 05:29:07;;;;;;;17.63;9.65;;;;;;;1.69;78.27;101506.19;7395190;19;20019;-66
2023/12/04 05:31:34;;;;;;;14.88;8.13;;;;;;;1.70;78.25;101500.06;7390577;19;20085;-66
2023/12/04 05:34:02;;;;;;;15.30;8.57;;;;;;;1.54;78.59;101496.13;7392349;19;20022;-68
2023/12/04 05:36:31;;;;;;;16.85;8.95;;;;;;;1.67;78.26;101496.69;7391705;19;20015;-68
2023/12/04 05:38:58;;;;;;;17.00;9.30;;;;;;;1.61;78.67;101500.31;7393366;19;20043;-65
2023/12/04 05:41:32;;;;;;;16.45;8.48;;;;;;;1.76;78.13;101493.00;7390623;19;20519;-65
2023/12/04 05:44:00;;;;;;;16.23;8.80;;;;;;;1.86;77.88;101502.31;7392155;19;20026;-65
2023/12/04 05:46:28;;;;;;;16.77;9.25;;;;;;;1.88;77.83;101498.75;7392015;19;20015;-66
2023/12/04 05:48:56;;;;;;;17.27;8.85;;;;;;;1.84;77.83;101499.75;7391693;19;20023;-66
2023/12/04 05:51:24;;;;;;;16.55;9.10;;;;;;;1.97;77.74;101491.59;7389343;19;20077;-66
2023/12/04 05:53:51;;;;;;;15.60;8.57;;;;;;;1.81;77.96;101496.34;7391771;19;20018;-65
2023/12/04 05:56:19;;;;;;;16.63;8.80;;;;;;;1.79;78.35;101495.53;7398657;19;20018;-67
2023/12/04 05:58:47;;;;;;;16.80;8.55;;;;;;;1.77;78.39;101485.13;7398681;19;20154;-66
2023/12/04 06:01:15;;;;;;;17.50;8.90;;;;;;;1.72;78.20;101479.19;7396319;19;20018;-65
2023/12/04 06:03:43;;;;;;;15.23;8.68;;;;;;;1.80;78.56;101476.38;7396852;19;20490;-66
2023/12/04 06:06:11;;;;;;;19.65;8.98;;;;;;;1.87;78.02;101477.91;7398425;19;20374;-66
2023/12/04 06:08:38;;;;;;;16.67;8.88;;;;;;;1.93;78.03;101477.75;7396822;19;20421;-66
2023/12/04 06:11:06;;;;;;;16.48;9.07;;;;;;;1.86;78.34;101476.19;7395139;19;20019;-66
2023/12/04 06:13:34;;;;;;;14.85;8.70;;;;;;;1.83;78.39;101476.25;7393903;19;20027;-66
2023/12/04 06:16:02;;;;;;;15.60;9.05;;;;;;;1.86;78.37;101473.56;7397674;19;20090;-66
2023/12/04 06:18:30;;;;;;;15.52;8.68;;;;;;;1.82;78.94;101471.94;7398048;19;20094;-66
2023/12/04 06:20:58;;;;;;;16.27;8.85;;;;;;;1.99;78.91;101466.31;7395296;19;20039;-66
2023/12/04 06:23:26;;;;;;;19.63;9.20;;;;;;;1.92;78.55;101465.59;7396569;19;20174;-66
2023/12/04 06:25:54;;;;;;;18.58;9.75;;;;;;;1.85;79.02;101457.06;7396030;19;20015;-65
2023/12/04 06:28:22;;;;;;;18.50;8.50;;;;;;;1.93;79.03;101457.72;7397768;19;20046;-65
2023/12/04 06:30:53;;;;;;;17.50;9.43;;;;;;;1.95;78.54;101455.94;7394960;19;20407;-65
2023/12/04 06:33:21;;;;;;;15.65;8.45;;;;;;;1.96;78.52;101456.78;7395058;19;20094;-66
2023/12/04 06:35:49;;;;;;;16.52;8.93;;;;;;;1.87;78.94;101452.66;7394716;19;20033;-66
2023/12/04 06:38:19;;;;;;;16.13;9.48;;;;;;;1.96;78.35;101456.78;7395897;19;20022;-65
2023/12/04 06:40:47;;;;;;;17.75;9.65;;;;;;;1.97;78.40;101453.25;7395208;19;20035;-65
2023/12/04 06:43:18;;;;;;;16.13;8.95;;;;;;;1.91;78.10;101451.69;7396732;19;20022;-65
2023/12/04 06:45:46;;;;;;;16.08;9.13;;;;;;;2.07;77.77;101449.50;7397167;19;20030;-65
2023/12/04 06:48:15;;;;;;;17.00;9.07;;;;;;;2.08;77.59;101455.59;7397115;19;20077;-65
2023/12/04 06:50:43;;;;;;;17.30;9.35;;;;;;;2.00;77.85;101454.94;7394443;19;20019;-65
2023/12/04 06:53:11;;;;;;;16.10;9.38;;;;;;;2.00;77.73;101447.09;7395579;19;20428;-65
2023/12/04 06:55:39;;;;;;;17.20;9.77;;;;;;;1.99;77.94;101445.41;7397934;19;20015;-67
2023/12/04 06:58:07;;;;;;;18.45;9.57;;;;;;;1.94;78.10;101450.72;7395214;19;20089;-66
2023/12/04 07:00:34;;;;;;;16.98;9.50;;;;;;;2.04;77.63;101449.59;7394701;19;20355;-66
2023/12/04 07:03:02;;;;;;;15.63;8.90;;;;;;;1.94;77.98;101451.56;7396749;19;20022;-66
2023/12/04 07:05:30;;;;;;;17.52;9.18;;;;;;;2.00;77.57;101454.94;7392802;19;20043;-66
2023/12/04 07:07:58;;;;;;;17.33;9.48;;;;;;;1.91;77.66;101456.06;7396371;19;20015;-66
2023/12/04 07:10:26;;;;;;;16.77;8.73;;;;;;;1.97;77.38;101450.66;7394549;19;20018;-66
2023/12/04 07:12:54;;;;;;;16.80;9.23;;;;;;;1.80;77.92;101450.25;7395134;19;20018;-66
2023/12/04 07:15:22;;;;;;;16.10;8.45;;;;;;;1.83;77.63;101455.38;7395348;19;20396;-66
2023/12/04 07:17:50;;;;;;;16.85;9.18;;;;;;;1.89;77.73;101452.63;7394322;19;20018;-66
2023/12/04 07:20:19;;;;;;;17.50;9.35;;;;;;;1.87;76.86;101446.56;7393123;19;20014;-66
2023/12/04 07:22:47;;;;;;;16.73;8.88;;;;;;;1.82;77.03;101441.47;7396427;19;20025;-66
2023/12/04 07:25:16;;;;;;;17.85;9.48;;;;;;;1.99;76.80;101443.66;7396208;19;20046;-66
2023/12/04 07:27:44;;;;;;;16.45;9.13;;;;;;;1.85;77.12;101448.38;7396703;19;20018;-65
2023/12/04 07:30:12;;;;;;;16.23;8.90;;;;;;;1.91;76.97;101448.22;7393947;19;20015;-65
2023/12/04 07:32:44;;;;;;;17.48;9.43;;;;;;;2.01;76.34;101443.59;7394736;19;20413;-65
2023/12/04 07:35:12;;;;;;;29.10;16.50;;;;;;;2.05;76.35;101438.22;7396240;19;20022;-65
2023/12/04 07:37:39;;;;;;;20.35;11.82;;;;;;;2.06;75.90;101445.19;7394332;19;20022;-65
2023/12/04 07:40:08;;;;;;;21.75;12.85;;;;;;;1.99;76.30;101435.81;7394683;19;20355;-65
2023/12/04 07:42:37;;;;;;;22.60;11.25;;;;;;;2.01;76.22;101443.59;7394927;19;20025;-65
2023/12/04 07:45:05;;;;;;;21.92;11.45;;;;;;;1.89;76.67;101444.78;7395063;19;20105;-65
2023/12/04 07:47:33;;;;;;;19.05;11.27;;;;;;;1.91;76.31;101456.06;7395416;19;20022;-65
2023/12/04 07:50:01;;;;;;;28.27;17.77;;;;;;;1.97;76.04;101445.44;7392053;19;20415;-65
2023/12/04 07:52:30;;;;;;;28.75;18.15;;;;;;;2.20;75.23;101448.25;7392855;19;20102;-66
2023/12/04 07:54:58;;;;;;;26.17;17.08;;;;;;;2.26;74.82;101443.78;7394714;19;20029;-66
2023/12/04 07:57:26;;;;;;;26.45;17.80;;;;;;;2.26;75.24;101442.03;7394622;19;20346;-66
2023/12/04 07:59:53;;;;;;;29.67;20.10;;;;;;;2.25;74.96;101442.94;7392312;19;20485;-66
2023/12/04 08:02:21;;;;;;;20.95;11.98;;;;;;;2.32;74.19;101446.22;7395300;19;20775;-66
2023/12/04 08:04:49;;;;;;;41.67;25.38;;;;;;;2.33;73.45;101446.19;7394526;19;20031;-66
2023/12/04 08:07:17;;;;;;;64.70;46.63;;;;;;;2.34;73.24;101441.81;7394737;19;20014;-66
2023/12/04 08:09:45;;;;;;;24.70;14.43;;;;;;;2.29;73.53;101441.94;7393529;19;20041;-66
2023/12/04 08:12:13;;;;;;;19.13;11.73;;;;;;;2.36;73.23;101434.75;7393988;19;20090;-66
2023/12/04 08:14:41;;;;;;;17.08;10.25;;;;;;;2.33;72.99;101440.09;7393236;19;20010;-66
2023/12/04 08:17:08;;;;;;;18.58;10.40;;;;;;;2.43;73.26;101438.91;7393973;19;20042;-65
2023/12/04 08:19:37;;;;;;;18.45;10.82;;;;;;;2.56;72.42;101437.69;7393656;19;20018;-65
2023/12/04 08:22:06;;;;;;;18.17;10.65;;;;;;;2.45;72.11;101434.53;7394032;19;20098;-65
2023/12/04 08:24:34;;;;;;;18.85;10.13;;;;;;;2.49;72.23;101430.06;7393633;19;20051;-65
2023/12/04 08:27:01;;;;;;;17.15;10.18;;;;;;;2.53;72.01;101427.31;7392324;19;20011;-66
2023/12/04 08:29:29;;;;;;;20.52;10.27;;;;;;;2.38;72.33;101427.75;7392454;19;20029;-65
2023/12/04 08:31:57;;;;;;;17.08;9.85;;;;;;;2.50;71.92;101427.38;7392048;19;20030;-66
2023/12/04 08:34:25;;;;;;;18.27;9.60;;;;;;;2.46;71.61;101425.75;7391719;19;20026;-66
2023/12/04 08:36:53;;;;;;;17.35;9.60;;;;;;;2.47;71.56;101417.00;7393612;19;20029;-65
2023/12/04 08:39:22;;;;;;;18.92;9.90;;;;;;;2.43;71.78;101415.41;7392002;19;20010;-65
2023/12/04 08:41:50;;;;;;;16.92;9.20;;;;;;;2.42;71.64;101409.31;7393362;19;20035;-65
2023/12/04 08:44:29;;;;;;;18.92;9.07;;;;;;;2.49;71.06;101415.22;7393938;19;20037;-65
2023/12/04 08:46:57;;;;;;;17.27;9.75;;;;;;;2.62;71.06;101411.31;7394987;19;20035;-65
2023/12/04 08:49:26;;;;;;;16.92;9.07;;;;;;;2.68;70.69;101405.06;7394331;19;20479;-65
2023/12/04 08:52:07;;;;;;;17.33;9.05;;;;;;;2.56;71.39;101410.69;7393115;19;20019;-65
2023/12/04 08:54:35;;;;;;;17.48;9.48;;;;;;;2.54;70.64;101402.88;7392876;19;20011;-66
2023/12/04 08:57:03;;;;;;;17.45;9.05;;;;;;;2.42;70.56;101400.63;7394670;19;20014;-66
2023/12/04 08:59:34;;;;;;;18.13;9.32;;;;;;;2.52;70.73;101399.47;7393865;19;20015;-66
2023/12/04 09:02:04;;;;;;;16.83;9.52;;;;;;;2.45;70.00;101397.94;7394627;19;20022;-66
2023/12/04 09:04:32;;;;;;;19.65;10.13;;;;;;;2.43;70.45;101391.88;7393045;19;20426;-66
2023/12/04 09:07:01;;;;;;;18.00;9.55;;;;;;;2.49;70.31;101391.69;7395493;19;20017;-66
2023/12/04 09:09:49;;;;;;;15.98;9.32;;;;;;;2.52;70.01;101391.63;7393406;19;20018;-66
2023/12/04 09:12:17;;;;;;;15.30;8.52;;;;;;;2.70;69.56;101384.94;7394394;19;20027;-67
2023/12/04 09:14:45;;;;;;;16.85;9.60;;;;;;;2.66;69.66;101391.19;7391903;19;20018;-66
2023/12/04 09:17:16;;;;;;;16.63;8.90;;;;;;;2.61;69.35;101395.69;7393139;19;20074;-67
2023/12/04 09:19:44;;;;;;;16.10;8.82;;;;;;;2.63;69.89;101381.69;7390698;19;20018;-65
2023/12/04 09:22:12;;;;;;;15.65;8.60;;;;;;;2.64;69.56;101382.53;7393203;19;20392;-66
2023/12/04 09:24:47;;;;;;;15.85;9.57;;;;;;;2.61;69.91;101393.09;7392918;19;20022;-66
2023/12/04 09:27:16;;;;;;;16.65;9.38;;;;;;;2.67;69.71;101395.50;7390742;19;20015;-66
2023/12/04 09:29:44;;;;;;;16.83;9.60;;;;;;;2.66;69.23;101385.94;7391150;19;20348;-67
2023/12/04 09:32:12;;;;;;;15.52;8.45;;;;;;;2.68;69.59;101389.38;7392043;19;20031;-67
2023/12/04 09:34:40;;;;;;;16.90;8.98;;;;;;;2.71;69.14;101393.66;7393230;19;20026;-66
2023/12/04 09:37:08;;;;;;;17.27;9.07;;;;;;;2.59;69.17;101387.88;7393141;19;20018;-67
2023/12/04 09:39:39;;;;;;;16.88;8.82;;;;;;;2.67;69.37;101392.88;7392269;19;20039;-67
2023/12/04 09:42:07;;;;;;;16.23;8.05;;;;;;;2.60;69.31;101383.53;7393772;19;20589;-67
2023/12/04 09:44:36;;;;;;;15.48;8.43;;;;;;;2.70;69.50;101382.34;7393080;19;20044;-67
2023/12/04 09:47:05;;;;;;;15.18;8.48;;;;;;;2.72;69.39;101379.69;7392692;19;20018;-67
2023/12/04 09:49:32;;;;;;;15.50;8.68;;;;;;;2.60;69.19;101380.94;7391910;19;20412;-66
2023/12/04 09:52:04;;;;;;;17.65;9.07;;;;;;;2.65;69.00;101379.88;7393864;19;20368;-67
2023/12/04 09:54:35;;;;;;;15.60;8.85;;;;;;;2.64;69.11;101375.56;7392142;19;20039;-67
2023/12/04 09:57:04;;;;;;;15.73;8.77;;;;;;;2.71;68.83;101368.38;7392586;19;20007;-66
2023/12/04 09:59:35;;;;;;;16.88;9.23;;;;;;;2.67;68.65;101367.63;7392034;19;20021;-66
2023/12/04 10:02:04;;;;;;;15.15;8.80;;;;;;;2.69;68.90;101357.94;7391368;19;20125;-67
2023/12/04 10:04:34;;;;;;;16.35;8.95;;;;;;;2.78;68.44;101359.41;7391873;19;20025;-66
2023/12/04 10:07:02;;;;;;;15.98;8.90;;;;;;;2.78;68.97;101359.41;7392194;19;20459;-66
2023/12/04 10:09:30;;;;;;;16.20;8.60;;;;;;;2.82;68.42;101360.16;7389729;19;20011;-67
2023/12/04 10:11:59;;;;;;;16.20;8.90;;;;;;;2.88;68.17;101355.59;7391449;19;20384;-66
2023/12/04 10:14:28;;;;;;;15.82;8.57;;;;;;;2.99;67.85;101357.03;7389598;19;20487;-66
2023/12/04 10:16:55;;;;;;;16.85;8.95;;;;;;;2.97;67.68;101353.59;7391964;19;20032;-68
2023/12/04 10:19:28;;;;;;;15.65;8.70;;;;;;;3.01;67.93;101342.97;7393507;19;20082;-67
2023/12/04 10:21:59;;;;;;;15.53;8.73;;;;;;;3.00;67.95;101346.50;7390943;19;20022;-67
2023/12/04 10:24:31;;;;;;;18.00;9.70;;;;;;;2.95;67.71;101348.44;7392116;19;20043;-67
2023/12/04 10:27:00;;;;;;;15.93;8.65;;;;;;;3.02;67.43;101334.25;7392109;19;20027;-66
2023/12/04 10:29:40;;;;;;;16.42;8.45;;;;;;;2.90;67.64;101332.00;7391213;19;20018;-65
2023/12/04 10:32:10;;;;;;;17.15;9.40;;;;;;;2.80;68.19;101334.09;7391984;19;20021;-66
2023/12/04 10:34:39;;;;;;;15.68;8.23;;;;;;;2.99;67.77;101326.50;7388571;19;20018;-66
2023/12/04 10:37:06;;;;;;;16.23;8.68;;;;;;;2.97;67.83;101319.59;7389551;19;20518;-67
2023/12/04 10:39:46;;;;;;;14.38;8.18;;;;;;;2.92;67.15;101317.13;7390802;19;20041;-66
2023/12/04 10:42:33;;;;;;;16.23;8.65;;;;;;;2.95;66.93;101309.19;7398879;19;20018;-66
2023/12/04 10:45:01;;;;;;;16.23;8.80;;;;;;;2.90;67.24;101314.59;7399094;19;20018;-67
2023/12/04 10:47:32;;;;;;;15.77;8.00;;;;;;;2.82;67.75;101313.09;7400270;19;20030;-66
2023/12/04 10:50:01;;;;;;;15.70;8.07;;;;;;;2.91;67.50;101294.50;7397813;19;20037;-67
2023/12/04 10:52:31;;;;;;;15.27;8.02;;;;;;;3.14;66.96;101294.59;7397985;19;20010;-66
2023/12/04 10:54:59;;;;;;;15.93;8.35;;;;;;;3.18;66.90;101292.72;7394015;19;20022;-66
2023/12/04 10:57:38;;;;;;;18.55;8.25;;;;;;;3.17;66.49;101288.41;7397664;19;20026;-67
2023/12/04 11:00:08;;;;;;;15.07;8.18;;;;;;;3.11;66.37;101286.84;7396367;19;20018;-66
2023/12/04 11:02:46;;;;;;;15.35;7.88;;;;;;;3.15;66.26;101275.34;7397384;19;20019;-66
2023/12/04 11:05:21;;;;;;;15.18;8.27;;;;;;;3.08;66.03;101280.84;7397074;19;20039;-66
2023/12/04 11:08:01;;;;;;;42.08;20.55;;;;;;;3.18;65.67;101274.41;7396876;19;20015;-66
2023/12/04 11:10:44;;;;;;;16.13;9.43;;;;;;;3.11;65.94;101270.28;7393598;19;20022;-66
2023/12/04 11:13:21;;;;;;;16.75;10.68;;;;;;;3.21;66.13;101265.59;7396777;19;20014;-66
2023/12/04 11:15:52;;;;;;;19.40;11.10;;;;;;;3.13;65.94;101265.88;7396808;19;20030;-68
2023/12/04 11:18:23;;;;;;;17.58;11.20;;;;;;;3.23;66.17;101258.53;7395183;19;20022;-67
2023/12/04 11:20:56;;;;;;;17.38;8.75;;;;;;;3.27;65.61;101258.38;7394632;19;20025;-66
2023/12/04 11:23:25;;;;;;;13.70;7.28;;;;;;;3.26;65.52;101255.81;7396105;19;20035;-67
2023/12/04 11:25:54;;;;;;;15.60;8.10;;;;;;;3.31;65.40;101248.63;7396348;19;20029;-67
2023/12/04 11:28:22;;;;;;;14.75;8.30;;;;;;;3.32;64.89;101247.72;7396571;19;20382;-66